Terminal Aerodrome Forecast
Issued by NWS

Home | Current Version | Previous Version | Text Only | Print | Product List | Glossary On
Versions: 1 2 3 4 5 6 7 8 9 10 11 12 13 14 15 16 17 18 19 20 21 22 23 24 25
000
FTUS41 KBTV 220500
TAFPBG
TAF
KPBG 220536Z 2206/2306 14006KT P6SM VCSH OVC025
     FM220800 14006KT P6SM SCT012 OVC018
     FM221400 15008KT P6SM BKN025
     FM222000 14008KT P6SM BKN045=

USA.gov is the U.S. government's official web portal to all federal, state and local government web resources and services.